Flight Track Log - Related Links

Times and Time Zones

All times are in EDT time to prevent confusion due to time zone crossing. See the SWA3206 flight status page for this flight to view local times or setup timezone preferences in your user account.


Time Position Orientation Groundspeed Altitude Reporting Facility
EDT Latitude Longitude Course Direction KTS MPH feet Rate Location/Type
Tue 06:58:14 PM 32.7500 -117.2333 270° West 197 227 2,000  Level Southern California TRACON
Tue 06:59:09 PM 32.7500 -117.3000 270° West 247 284 5,700 4,167 Climbing Southern California TRACON
Tue 06:59:26 PM 32.7428 -117.3208 248° West 239 275 7,000 3,949 Climbing Los Angeles Center
Tue 07:00:28 PM 32.6783 -117.2983 164° South 274 315 10,900 3,242 Climbing Los Angeles Center
Tue 07:01:30 PM 32.6478 -117.2303 118° Southeast 293 337 13,700 3,048 Climbing Los Angeles Center
Tue 07:02:32 PM 32.6269 -117.0889 100° East 362 417 17,200 3,726 Climbing Los Angeles Center
Tue 07:03:34 PM 32.6136 -116.9375 96° East 385 443 21,400 3,871 Climbing Los Angeles Center
Tue 07:04:36 PM 32.6275 -116.8061 83° East 402 463 25,200 2,710 Climbing Los Angeles Center
Tue 07:05:38 PM 32.6397 -116.6808 83° East 386 444 27,000 871 Climbing Los Angeles Center
Tue 07:06:40 PM 32.6525 -116.5467 84° East 412 474 27,000  Level Los Angeles Center
Tue 07:07:42 PM 32.6644 -116.4142 84° East 412 474 27,000  Level Los Angeles Center
Tue 07:08:44 PM 32.6800 -116.2547 83° East 413 475 27,000  Level Los Angeles Center
Tue 07:09:46 PM 32.6931 -116.1206 83° East 415 478 27,000  Level Los Angeles Center
Tue 07:10:48 PM 32.7050 -115.9850 84° East 416 479 27,000  Level Los Angeles Center
Tue 07:11:50 PM 32.7186 -115.8503 83° East 414 476 27,000  Level Los Angeles Center
Tue 07:12:52 PM 32.7308 -115.7131 84° East 419 482 27,000  Level Los Angeles Center
Tue 07:13:54 PM 32.7450 -115.5492 84° East 418 481 27,000  Level Los Angeles Center
Tue 07:14:56 PM 32.7522 -115.4114 86° East 421 484 27,000  Level Los Angeles Center
Tue 07:15:58 PM 32.7542 -115.2739 89° East 418 481 27,000  Level Los Angeles Center
Tue 07:17:00 PM 32.7594 -115.1367 87° East 417 480 27,000  Level Los Angeles Center
Tue 07:18:02 PM 32.7617 -115.0003 89° East 413 475 27,000  Level Los Angeles Center
Tue 07:19:04 PM 32.7633 -114.8642 89° East 413 475 27,000 -537 Level Los Angeles Center
Tue 07:20:05 PM 32.7672 -114.7006 88° East 411 473 25,900 -976 Descending Los Angeles Center
Tue 07:21:07 PM 32.7689 -114.5656 89° East 407 468 25,000 -435 Descending Los Angeles Center
Tue 07:22:09 PM 32.7725 -114.4297 88° East 410 472 25,000  Level Los Angeles Center
Tue 07:23:11 PM 32.7742 -114.2953 89° East 409 471 25,000  Level Los Angeles Center
Tue 07:24:13 PM 32.7747 -114.1592 90° East 412 474 25,000  Level Los Angeles Center
Tue 07:24:37 PM 32.7761 -114.0867 89° East 412 474 25,000  Level Albuquerque Center
Tue 07:25:39 PM 32.7792 -113.9503 88° East 413 475 25,000  Level Albuquerque Center
Tue 07:26:40 PM 32.8161 -113.8244 71° East 404 465 25,000  Level Albuquerque Center
Tue 07:27:42 PM 32.8725 -113.7044 61° Northeast 410 472 25,000  Level Albuquerque Center
Tue 07:28:43 PM 32.9267 -113.5850 62° Northeast 410 472 25,000  Level Albuquerque Center
Tue 07:29:45 PM 32.9839 -113.4653 60° Northeast 412 474 25,000  Level Albuquerque Center
Tue 07:30:47 PM 33.0389 -113.3458 61° Northeast 411 473 25,000 -732 Level Albuquerque Center
Tue 07:31:48 PM 33.0931 -113.2256 62° Northeast 410 472 23,500 -1,902 Descending Albuquerque Center
Tue 07:32:50 PM 33.1464 -113.1103 61° Northeast 400 460 21,100 -2,244 Descending Albuquerque Center
Tue 07:33:51 PM 33.1981 -113.0006 61° Northeast 385 443 18,900 -2,390 Descending Albuquerque Center
Tue 07:34:53 PM 33.2567 -112.8703 62° Northeast 373 429 16,200 -1,463 Descending Albuquerque Center
Tue 07:35:54 PM 33.2808 -112.7650 75° East 335 386 15,900 -439 Descending Albuquerque Center
Tue 07:36:56 PM 33.2833 -112.6550 88° East 330 380 15,300 -1,024 Descending Albuquerque Center
Tue 07:37:57 PM 33.2869 -112.5450 88° East 319 367 13,800 -1,512 Descending Albuquerque Center
Tue 07:38:59 PM 33.2903 -112.4447 88° East 306 352 12,200 -1,366 Descending Albuquerque Center
Tue 07:40:00 PM 33.2922 -112.3444 89° East 303 349 11,000 -585 Descending Albuquerque Center
Tue 07:41:02 PM 33.2997 -112.2442 85° East 303 349 11,000 -683 Level Albuquerque Center
Tue 07:42:03 PM 33.3078 -112.1433 85° East 306 352 9,600 -1,854 Descending Albuquerque Center
Tue 07:43:05 PM 33.3239 -112.0472 79° East 299 344 7,200 -1,659 Descending Albuquerque Center
Tue 07:44:06 PM 33.3436 -111.9578 75° East 279 321 6,200 -1,366 Descending Albuquerque Center
Tue 07:45:08 PM 33.3456 -111.8603 89° East 247 284 4,400 -1,220 Descending Albuquerque Center
Tue 07:46:09 PM 33.3881 -111.8319 29° Northeast 197 227 3,700 -683 Descending Albuquerque Center
Tue 07:47:11 PM 33.4264 -111.8628 326° Northwest 178 205 3,000 -683 Descending Albuquerque Center
Tue 07:48:12 PM 33.4286 -111.9211 273° West 175 201 2,300 -683 Descending Albuquerque Center
Tue 07:49:14 PM 33.4292 -111.9692 271° West 146 168 1,600 -585 Descending Albuquerque Center
Tue 07:50:15 PM 33.4281 -112.0164 268° West 133 153 1,100 -492 Descending Albuquerque Center

Login

Don't have an account? Register now (free) for customized features, flight alerts, and more!